createdAt,value
2018-03-21T00:02:14.000Z,61.90
2018-03-21T00:04:41.479Z,61.97
2018-03-21T00:07:09.004Z,62.26
2018-03-21T00:09:37.767Z,62.32
2018-03-21T00:12:05.248Z,62.23
2018-03-21T00:14:33.639Z,62.53
2018-03-21T00:17:01.140Z,62.29
2018-03-21T00:19:28.654Z,62.41
2018-03-21T00:21:56.174Z,62.24
2018-03-21T00:24:23.681Z,62.51
2018-03-21T00:26:51.148Z,62.25
2018-03-21T00:29:18.645Z,62.00
2018-03-21T00:31:46.149Z,61.44
2018-03-21T00:34:13.712Z,61.51
2018-03-21T00:36:41.383Z,61.92
2018-03-21T00:39:08.832Z,61.81
2018-03-21T00:41:36.307Z,61.47
2018-03-21T00:44:03.808Z,61.25
2018-03-21T00:46:31.515Z,61.69
2018-03-21T00:48:59.010Z,60.69
2018-03-21T00:51:26.500Z,60.54
2018-03-21T00:53:53.966Z,60.56
2018-03-21T00:56:21.433Z,60.38
2018-03-21T00:58:49.719Z,60.15
2018-03-21T01:01:18.643Z,60.67
2018-03-21T01:03:46.128Z,60.87
2018-03-21T01:06:13.608Z,60.37
2018-03-21T01:08:41.061Z,59.76
2018-03-21T01:11:08.528Z,59.59
2018-03-21T01:13:35.983Z,59.74
2018-03-21T01:16:03.464Z,59.95
2018-03-21T01:18:30.935Z,60.14
2018-03-21T01:20:58.422Z,59.82
2018-03-21T01:23:25.894Z,60.11
2018-03-21T01:25:53.360Z,59.01
2018-03-21T01:28:20.975Z,58.67
2018-03-21T01:30:49.516Z,58.83
2018-03-21T01:33:16.979Z,57.80
2018-03-21T01:35:44.459Z,58.05
2018-03-21T01:38:11.946Z,58.03
2018-03-21T01:40:39.484Z,57.77
2018-03-21T01:43:06.990Z,57.67
2018-03-21T01:45:34.456Z,57.91
2018-03-21T01:48:02.008Z,57.68
2018-03-21T01:50:29.491Z,57.62
2018-03-21T01:53:08.709Z,57.89
2018-03-21T01:55:36.219Z,58.24
2018-03-21T01:58:03.699Z,57.77
2018-03-21T02:00:31.164Z,57.70
2018-03-21T02:02:58.626Z,58.04
2018-03-21T02:05:26.139Z,57.94
2018-03-21T02:07:53.623Z,57.97
2018-03-21T02:10:21.227Z,58.14
2018-03-21T02:12:48.691Z,58.58
2018-03-21T02:15:16.393Z,58.79
2018-03-21T02:17:43.883Z,58.73
2018-03-21T02:20:11.353Z,58.83
2018-03-21T02:22:38.836Z,58.65
2018-03-21T02:25:06.319Z,58.57
2018-03-21T02:27:33.798Z,58.89
2018-03-21T02:30:01.327Z,58.89
2018-03-21T02:32:29.097Z,59.21
2018-03-21T02:34:56.585Z,59.19
2018-03-21T02:37:24.045Z,59.19
2018-03-21T02:39:51.576Z,59.27
2018-03-21T02:42:19.053Z,59.48
2018-03-21T02:44:46.519Z,59.83
2018-03-21T02:47:14.563Z,59.58
2018-03-21T02:49:42.499Z,59.91
2018-03-21T02:52:09.976Z,60.04
2018-03-21T02:54:37.439Z,59.93
2018-03-21T02:57:04.905Z,60.00
2018-03-21T02:59:32.771Z,59.94
2018-03-21T03:02:00.232Z,59.97
2018-03-21T03:04:27.690Z,59.76
2018-03-21T03:06:55.156Z,60.22
2018-03-21T03:09:22.612Z,60.18
2018-03-21T03:11:50.113Z,59.95
2018-03-21T03:14:17.581Z,60.07
2018-03-21T03:16:45.043Z,60.04
2018-03-21T03:19:13.544Z,60.02
2018-03-21T03:21:41.000Z,59.85
2018-03-21T03:24:08.515Z,60.05
2018-03-21T03:26:36.155Z,60.48
2018-03-21T03:29:03.629Z,60.49
2018-03-21T03:31:31.115Z,60.40
2018-03-21T03:33:58.572Z,60.98
2018-03-21T03:36:26.413Z,61.34
2018-03-21T03:38:53.963Z,61.34
2018-03-21T03:41:21.431Z,61.36
2018-03-21T03:43:48.924Z,61.78
2018-03-21T03:46:16.499Z,61.67
2018-03-21T03:48:43.967Z,62.17
2018-03-21T03:51:11.434Z,62.10
2018-03-21T03:53:38.895Z,62.28
2018-03-21T03:56:06.360Z,62.79
2018-03-21T03:58:33.839Z,62.98
2018-03-21T04:01:01.298Z,63.62
2018-03-21T04:03:28.747Z,63.28
2018-03-21T04:05:56.219Z,63.31
2018-03-21T04:08:23.669Z,63.62
2018-03-21T04:10:51.180Z,63.39
2018-03-21T04:13:18.646Z,63.46
2018-03-21T04:15:46.112Z,63.82
2018-03-21T04:18:13.591Z,63.81
2018-03-21T04:20:41.059Z,64.35
2018-03-21T04:23:08.519Z,65.02
2018-03-21T04:25:37.130Z,64.30
2018-03-21T04:28:04.598Z,64.30
2018-03-21T04:30:32.067Z,64.55
2018-03-21T04:32:59.535Z,64.80
2018-03-21T04:35:27.007Z,64.99
2018-03-21T04:37:54.497Z,64.92
2018-03-21T04:40:22.144Z,65.16
2018-03-21T04:42:49.714Z,65.38
2018-03-21T04:45:17.315Z,65.40
2018-03-21T04:47:44.797Z,65.59
2018-03-21T04:50:12.323Z,65.47
2018-03-21T04:52:39.943Z,65.79
2018-03-21T04:55:07.402Z,66.08
2018-03-21T04:57:34.902Z,66.27
2018-03-21T05:00:02.428Z,66.35
2018-03-21T05:02:30.088Z,66.40
2018-03-21T05:04:57.579Z,66.28
2018-03-21T05:07:25.061Z,66.53
2018-03-21T05:09:52.543Z,66.63
2018-03-21T05:12:20.048Z,66.96
2018-03-21T05:14:47.523Z,66.66
2018-03-21T05:17:15.012Z,67.32
2018-03-21T05:19:42.492Z,66.85
2018-03-21T05:22:10.264Z,66.93
2018-03-21T05:24:37.759Z,66.69
2018-03-21T05:27:05.258Z,66.87
2018-03-21T05:29:32.743Z,66.83
2018-03-21T05:32:00.196Z,66.86
2018-03-21T05:34:27.950Z,66.97
2018-03-21T05:36:55.467Z,66.77
2018-03-21T05:39:22.950Z,66.46
2018-03-21T05:41:50.427Z,66.62
2018-03-21T05:44:17.895Z,66.57
2018-03-21T05:46:45.376Z,66.28
2018-03-21T05:49:13.391Z,66.52
2018-03-21T05:51:41.775Z,66.62
2018-03-21T05:54:09.234Z,66.72
2018-03-21T05:56:36.737Z,66.56
2018-03-21T05:59:04.211Z,66.37
2018-03-21T06:01:31.672Z,66.70
2018-03-21T06:03:59.167Z,66.91
2018-03-21T06:06:26.764Z,66.91
2018-03-21T06:08:54.249Z,66.87
2018-03-21T06:11:21.742Z,67.01
2018-03-21T06:13:49.207Z,67.32
2018-03-21T06:16:16.725Z,66.77
2018-03-21T06:18:44.526Z,65.05
2018-03-21T06:21:12.040Z,65.56
2018-03-21T06:23:39.503Z,65.74
2018-03-21T06:26:06.985Z,66.11
2018-03-21T06:28:34.443Z,65.80
2018-03-21T06:31:01.924Z,65.93
2018-03-21T06:33:29.444Z,66.20
2018-03-21T06:35:56.916Z,66.62
2018-03-21T06:38:24.447Z,66.69
2018-03-21T06:40:52.016Z,66.17
2018-03-21T06:43:19.589Z,65.93
2018-03-21T06:45:47.079Z,65.23
2018-03-21T06:48:14.542Z,64.93
2018-03-21T06:50:42.007Z,64.59
2018-03-21T06:53:09.475Z,63.86
2018-03-21T06:55:36.961Z,63.56
2018-03-21T06:58:04.442Z,63.27
2018-03-21T07:00:31.953Z,63.13
2018-03-21T07:02:59.481Z,63.15
2018-03-21T07:05:27.023Z,62.97
2018-03-21T07:07:54.543Z,63.42
2018-03-21T07:10:22.028Z,62.78
2018-03-21T07:12:49.533Z,63.29
2018-03-21T07:15:28.784Z,63.09
2018-03-21T07:17:56.340Z,63.23
2018-03-21T07:20:23.813Z,63.39
2018-03-21T07:22:51.276Z,63.48
2018-03-21T07:25:18.765Z,63.29
2018-03-21T07:27:46.245Z,63.40
2018-03-21T07:30:13.738Z,62.91
2018-03-21T07:32:41.251Z,63.10
2018-03-21T07:35:08.730Z,63.27
2018-03-21T07:37:36.246Z,63.12
2018-03-21T07:40:03.763Z,62.99
2018-03-21T07:42:31.244Z,62.76
2018-03-21T07:44:58.724Z,63.05
2018-03-21T07:47:26.244Z,62.60
2018-03-21T07:49:53.765Z,63.16
2018-03-21T07:52:21.287Z,63.71
2018-03-21T07:54:48.783Z,62.67
2018-03-21T07:57:16.404Z,63.31
2018-03-21T07:59:43.900Z,63.42
2018-03-21T08:02:11.395Z,63.94
2018-03-21T08:04:38.886Z,64.59
2018-03-21T08:07:06.368Z,64.85
2018-03-21T08:09:33.911Z,65.62
2018-03-21T08:12:01.392Z,65.62
2018-03-21T08:14:29.071Z,65.32
2018-03-21T08:16:56.479Z,65.40
2018-03-21T08:19:24.021Z,65.46
2018-03-21T08:21:51.534Z,65.65
2018-03-21T08:24:19.010Z,65.55
2018-03-21T08:26:46.519Z,66.03
2018-03-21T08:29:14.048Z,65.80
2018-03-21T08:31:41.538Z,65.63
2018-03-21T08:34:09.028Z,65.65
2018-03-21T08:36:36.502Z,65.78
2018-03-21T08:39:04.067Z,65.37
2018-03-21T08:41:31.683Z,65.12
2018-03-21T08:43:59.167Z,65.37
2018-03-21T08:46:26.656Z,65.22
2018-03-21T08:48:54.151Z,65.24
2018-03-21T08:51:21.674Z,65.18
2018-03-21T08:53:49.136Z,64.87
2018-03-21T08:56:16.861Z,64.68
2018-03-21T08:58:44.359Z,64.12
2018-03-21T09:01:11.838Z,63.66
2018-03-21T09:03:39.332Z,63.89
2018-03-21T09:06:06.808Z,63.75
2018-03-21T09:08:34.460Z,62.72
2018-03-21T09:11:01.952Z,63.08
2018-03-21T09:13:29.407Z,64.21
2018-03-21T09:15:56.882Z,63.89
2018-03-21T09:18:24.463Z,63.57
2018-03-21T09:20:51.928Z,63.65
2018-03-21T09:23:19.414Z,62.35
2018-03-21T09:25:46.911Z,63.53
2018-03-21T09:28:14.546Z,62.45
2018-03-21T09:30:42.044Z,62.08
2018-03-21T09:33:09.537Z,62.42
2018-03-21T09:35:37.027Z,62.45
2018-03-21T09:38:04.520Z,63.47
2018-03-21T09:40:32.378Z,64.07
2018-03-21T09:42:59.871Z,63.68
2018-03-21T09:45:27.431Z,63.24
2018-03-21T09:47:54.924Z,63.79
2018-03-21T09:50:22.392Z,63.05
2018-03-21T09:52:49.846Z,62.57
2018-03-21T09:55:17.360Z,63.20
2018-03-21T09:57:44.793Z,63.82
2018-03-21T10:00:12.276Z,63.42
2018-03-21T10:02:40.278Z,62.19
2018-03-21T10:05:07.757Z,61.93
2018-03-21T10:07:35.804Z,61.80
2018-03-21T10:10:03.310Z,62.18
2018-03-21T10:12:30.779Z,62.32
2018-03-21T10:14:58.295Z,61.89
2018-03-21T10:17:25.781Z,61.84
2018-03-21T10:19:53.271Z,61.62
2018-03-21T10:22:20.760Z,62.75
2018-03-21T10:24:48.237Z,62.80
2018-03-21T10:27:16.587Z,62.75
2018-03-21T10:29:44.093Z,63.79
2018-03-21T10:32:11.583Z,65.05
2018-03-21T10:34:39.070Z,64.22
2018-03-21T10:37:06.604Z,63.91
2018-03-21T10:39:34.113Z,62.62
2018-03-21T10:42:01.591Z,61.69
2018-03-21T10:44:29.080Z,61.67
2018-03-21T10:46:56.561Z,61.44
2018-03-21T10:49:24.066Z,59.51
2018-03-21T10:51:51.540Z,59.89
2018-03-21T10:54:19.010Z,58.91
2018-03-21T10:56:46.533Z,58.36
2018-03-21T10:59:14.028Z,58.14
2018-03-21T11:01:41.544Z,57.38
2018-03-21T11:04:09.036Z,55.30
2018-03-21T11:06:36.528Z,55.46
2018-03-21T11:09:04.867Z,54.32
2018-03-21T11:11:32.482Z,52.92
2018-03-21T11:14:00.480Z,51.99
2018-03-21T11:16:27.954Z,52.46
2018-03-21T11:18:55.450Z,52.10
2018-03-21T11:21:23.004Z,52.32
2018-03-21T11:23:50.465Z,52.08
2018-03-21T11:26:18.482Z,51.67
2018-03-21T11:28:45.971Z,51.04
2018-03-21T11:31:13.482Z,50.22
2018-03-21T11:33:40.959Z,49.89
2018-03-21T11:36:08.467Z,49.59
2018-03-21T11:38:35.926Z,49.39
2018-03-21T11:41:04.258Z,48.33
2018-03-21T11:43:31.732Z,47.57
2018-03-21T11:45:59.730Z,47.41
2018-03-21T11:48:28.468Z,45.45
2018-03-21T11:50:55.961Z,45.80
2018-03-21T11:53:23.474Z,45.53
2018-03-21T11:55:50.957Z,45.66
2018-03-21T11:58:18.583Z,46.02
2018-03-21T12:00:46.060Z,45.96
2018-03-21T12:03:13.633Z,45.26
2018-03-21T12:05:41.182Z,45.79
2018-03-21T12:08:08.637Z,45.68
2018-03-21T12:10:36.088Z,44.73
2018-03-21T12:13:03.613Z,45.58
2018-03-21T12:15:31.072Z,46.34
2018-03-21T12:17:58.794Z,45.89
2018-03-21T12:20:26.289Z,47.10
2018-03-21T12:22:53.751Z,47.98
2018-03-21T12:25:21.270Z,46.09
2018-03-21T12:27:48.760Z,45.41
2018-03-21T12:30:16.249Z,46.12
2018-03-21T12:32:43.810Z,46.39
2018-03-21T12:35:11.282Z,48.43
2018-03-21T12:37:38.778Z,48.80
2018-03-21T12:40:06.270Z,47.73
2018-03-21T12:42:33.760Z,48.15
2018-03-21T12:45:01.384Z,47.04
2018-03-21T12:47:28.992Z,46.74
2018-03-21T12:49:57.040Z,47.09
2018-03-21T12:52:24.832Z,45.85
2018-03-21T12:54:52.334Z,43.58
2018-03-21T12:57:19.839Z,43.60
2018-03-21T12:59:47.318Z,43.48
2018-03-21T13:02:14.812Z,45.81
2018-03-21T13:04:42.263Z,40.80
2018-03-21T13:07:09.785Z,37.75
2018-03-21T13:09:37.258Z,37.45
2018-03-21T13:12:04.723Z,37.30
2018-03-21T13:14:33.447Z,37.11
2018-03-21T13:17:00.920Z,37.65
2018-03-21T13:19:29.700Z,40.98
2018-03-21T13:21:57.195Z,42.85
2018-03-21T13:24:24.946Z,41.80
2018-03-21T13:26:52.432Z,42.17
2018-03-21T13:29:20.527Z,42.31
2018-03-21T13:31:48.049Z,41.32
2018-03-21T13:34:16.590Z,38.31
2018-03-21T13:36:44.316Z,37.93
2018-03-21T13:39:11.787Z,38.20
2018-03-21T13:41:39.240Z,38.61
2018-03-21T13:44:06.737Z,38.50
2018-03-21T13:46:34.259Z,37.29
2018-03-21T13:49:02.298Z,34.70
2018-03-21T13:51:29.759Z,33.81
2018-03-21T13:53:57.221Z,33.95
2018-03-21T13:56:24.808Z,33.13
2018-03-21T13:58:52.266Z,33.23
2018-03-21T14:01:19.715Z,33.94
2018-03-21T14:03:47.173Z,35.96
2018-03-21T14:06:14.638Z,37.01
2018-03-21T14:08:42.092Z,37.86
2018-03-21T14:11:09.613Z,37.99
2018-03-21T14:13:37.055Z,37.41
2018-03-21T14:16:04.570Z,36.87
2018-03-21T14:18:32.375Z,37.46
2018-03-21T14:20:59.825Z,38.09
2018-03-21T14:23:27.288Z,37.61
2018-03-21T14:25:54.740Z,37.83
2018-03-21T14:28:22.198Z,37.06
2018-03-21T14:30:49.735Z,36.54
2018-03-21T14:33:17.236Z,36.19
2018-03-21T14:35:44.696Z,36.20
2018-03-21T14:38:12.165Z,31.16
2018-03-21T14:40:39.618Z,29.60
2018-03-21T14:43:07.080Z,27.50
2018-03-21T14:45:34.608Z,25.83
2018-03-21T14:48:02.094Z,24.92
2018-03-21T14:50:29.763Z,25.05
2018-03-21T14:52:57.224Z,26.99
2018-03-21T14:55:24.701Z,26.97
2018-03-21T14:57:52.178Z,26.36
2018-03-21T15:00:19.659Z,26.87
2018-03-21T15:02:47.129Z,26.31
2018-03-21T15:05:14.652Z,24.87
2018-03-21T15:07:42.111Z,23.85
2018-03-21T15:10:09.651Z,23.55
2018-03-21T15:12:37.095Z,22.56
2018-03-21T15:15:04.568Z,22.36
2018-03-21T15:17:32.040Z,20.96
2018-03-21T15:19:59.512Z,20.91
2018-03-21T15:22:27.013Z,21.48
2018-03-21T15:24:54.479Z,21.00
2018-03-21T15:27:22.075Z,21.84
2018-03-21T15:29:49.593Z,21.55
2018-03-21T15:32:17.099Z,21.20
2018-03-21T15:34:44.602Z,20.90
2018-03-21T15:37:12.123Z,20.96
2018-03-21T15:39:39.613Z,21.01
2018-03-21T15:42:07.097Z,20.97
2018-03-21T15:44:34.579Z,21.21
2018-03-21T15:47:02.049Z,20.70
2018-03-21T15:49:29.509Z,20.81
2018-03-21T15:51:57.868Z,21.26
2018-03-21T15:54:27.014Z,21.05
2018-03-21T15:56:54.873Z,21.24
2018-03-21T15:59:22.343Z,20.81
2018-03-21T16:01:49.800Z,21.40
2018-03-21T16:04:17.287Z,21.23
2018-03-21T16:06:44.742Z,21.84
2018-03-21T16:09:12.225Z,21.54
2018-03-21T16:11:39.685Z,22.10
2018-03-21T16:14:07.148Z,21.52
2018-03-21T16:16:34.611Z,21.86
2018-03-21T16:19:02.053Z,22.73
2018-03-21T16:21:29.529Z,23.21
2018-03-21T16:23:57.008Z,24.77
2018-03-21T16:26:24.456Z,25.01
2018-03-21T16:28:51.937Z,24.52
2018-03-21T16:31:19.441Z,24.66
2018-03-21T16:33:46.914Z,23.42
2018-03-21T16:36:14.398Z,24.19
2018-03-21T16:38:41.896Z,24.82
2018-03-21T16:41:12.364Z,25.70
2018-03-21T16:43:39.917Z,27.31
2018-03-21T16:46:07.405Z,28.24
2018-03-21T16:48:34.849Z,29.04
2018-03-21T16:51:02.329Z,29.97
2018-03-21T16:53:29.790Z,30.33
2018-03-21T16:55:57.245Z,31.14
2018-03-21T16:58:24.861Z,31.76
2018-03-21T17:00:52.323Z,32.26
2018-03-21T17:03:19.841Z,32.53
2018-03-21T17:05:47.437Z,33.29
2018-03-21T17:08:14.941Z,33.72
2018-03-21T17:10:43.485Z,33.74
2018-03-21T17:13:11.023Z,34.32
2018-03-21T17:15:38.488Z,34.15
2018-03-21T17:18:06.084Z,34.81
2018-03-21T17:20:33.560Z,35.33
2018-03-21T17:23:01.058Z,35.69
2018-03-21T17:25:28.520Z,36.13
2018-03-21T17:27:56.029Z,36.59
2018-03-21T17:30:23.527Z,36.67
2018-03-21T17:32:51.060Z,36.54
2018-03-21T17:35:18.524Z,37.06
2018-03-21T17:37:46.116Z,36.85
2018-03-21T17:40:13.674Z,36.95
2018-03-21T17:42:41.139Z,36.99
2018-03-21T17:45:08.612Z,36.91
2018-03-21T17:47:36.160Z,37.19
2018-03-21T17:50:03.641Z,37.33
2018-03-21T17:52:31.137Z,37.84
2018-03-21T17:54:58.622Z,37.83
2018-03-21T17:57:26.085Z,37.50
2018-03-21T17:59:53.563Z,38.05
2018-03-21T18:02:21.016Z,38.37
2018-03-21T18:04:49.373Z,38.67
2018-03-21T18:07:16.992Z,38.82
2018-03-21T18:09:44.606Z,38.39
2018-03-21T18:12:12.112Z,38.28
2018-03-21T18:14:39.671Z,38.54
2018-03-21T18:17:07.163Z,38.91
2018-03-21T18:19:34.634Z,38.65
2018-03-21T18:22:02.111Z,38.64
2018-03-21T18:24:29.665Z,38.86
2018-03-21T18:26:57.171Z,39.08
2018-03-21T18:29:24.657Z,38.77
2018-03-21T18:31:52.131Z,39.13
2018-03-21T18:34:19.609Z,39.00
2018-03-21T18:36:47.089Z,39.80
2018-03-21T18:39:14.914Z,39.35
2018-03-21T18:41:42.430Z,39.51
2018-03-21T18:44:09.923Z,39.56
2018-03-21T18:46:37.459Z,39.68
2018-03-21T18:49:04.938Z,39.10
2018-03-21T18:51:32.431Z,38.95
2018-03-21T18:53:59.887Z,39.03
2018-03-21T18:56:27.381Z,39.07
2018-03-21T18:58:54.954Z,39.15
2018-03-21T19:01:22.452Z,39.30
2018-03-21T19:03:51.148Z,39.26
2018-03-21T19:06:18.640Z,39.54
2018-03-21T19:08:46.205Z,39.51
2018-03-21T19:11:13.688Z,39.68
2018-03-21T19:13:41.401Z,39.92
2018-03-21T19:16:08.896Z,40.40
2018-03-21T19:18:36.368Z,40.60
2018-03-21T19:21:04.148Z,40.56
2018-03-21T19:23:31.629Z,41.03
2018-03-21T19:25:59.091Z,41.06
2018-03-21T19:28:26.797Z,41.21
2018-03-21T19:30:55.051Z,41.17
2018-03-21T19:33:22.553Z,41.54
2018-03-21T19:35:50.106Z,41.68
2018-03-21T19:38:17.602Z,41.64
2018-03-21T19:40:45.086Z,41.73
2018-03-21T19:43:12.632Z,41.99
2018-03-21T19:45:40.100Z,42.37
2018-03-21T19:48:07.609Z,42.65
2018-03-21T19:50:35.342Z,43.03
2018-03-21T19:53:03.194Z,42.79
2018-03-21T19:55:30.817Z,43.06
2018-03-21T19:57:58.392Z,43.05
2018-03-21T20:00:25.846Z,43.11
2018-03-21T20:02:53.320Z,43.46
2018-03-21T20:05:20.845Z,43.33
2018-03-21T20:07:48.604Z,43.71
2018-03-21T20:10:16.093Z,44.15
2018-03-21T20:12:43.660Z,44.44
2018-03-21T20:15:12.052Z,44.25
2018-03-21T20:17:39.680Z,44.57
2018-03-21T20:20:07.306Z,44.40
2018-03-21T20:22:34.846Z,44.58
2018-03-21T20:25:02.372Z,44.79
2018-03-21T20:27:29.888Z,44.54
2018-03-21T20:29:57.372Z,44.73
2018-03-21T20:32:24.851Z,44.96
2018-03-21T20:34:53.306Z,44.31
2018-03-21T20:37:20.860Z,44.82
2018-03-21T20:39:48.389Z,45.16
2018-03-21T20:42:15.998Z,45.19
2018-03-21T20:44:43.529Z,45.31
2018-03-21T20:47:11.033Z,45.18
2018-03-21T20:49:38.604Z,46.13
2018-03-21T20:52:06.150Z,48.19
2018-03-21T20:54:33.649Z,49.70
2018-03-21T20:57:01.118Z,51.14
2018-03-21T20:59:28.738Z,51.52
2018-03-21T21:01:56.313Z,52.08
2018-03-21T21:04:23.787Z,52.64
2018-03-21T21:06:51.282Z,52.79
2018-03-21T21:09:18.856Z,52.89
2018-03-21T21:14:20.232Z,53.30
2018-03-21T21:16:47.721Z,52.99
2018-03-21T21:19:15.180Z,53.35
2018-03-21T21:21:42.671Z,53.06
2018-03-21T21:24:10.141Z,53.58
2018-03-21T21:26:37.619Z,53.31
2018-03-21T21:29:05.150Z,53.88
2018-03-21T21:31:32.653Z,54.66
2018-03-21T21:34:00.161Z,55.36
2018-03-21T21:36:27.636Z,55.94
2018-03-21T21:38:55.130Z,55.87
2018-03-21T21:41:23.791Z,55.98
2018-03-21T21:43:51.324Z,55.85
2018-03-21T21:46:18.828Z,56.19
2018-03-21T21:48:46.342Z,55.89
2018-03-21T21:51:13.947Z,55.48
2018-03-21T21:53:41.436Z,55.61
2018-03-21T21:56:08.923Z,55.62
2018-03-21T21:58:36.400Z,56.51
2018-03-21T22:01:03.927Z,56.01
2018-03-21T22:03:31.422Z,55.92
2018-03-21T22:05:59.320Z,54.23
2018-03-21T22:08:26.812Z,54.53
2018-03-21T22:10:54.353Z,55.05
2018-03-21T22:13:21.840Z,54.91
2018-03-21T22:15:49.312Z,55.68
2018-03-21T22:18:16.807Z,55.44
2018-03-21T22:20:44.333Z,54.29
2018-03-21T22:23:11.824Z,55.46
2018-03-21T22:25:39.325Z,54.91
2018-03-21T22:28:06.796Z,55.13
2018-03-21T22:30:34.276Z,54.74
2018-03-21T22:33:01.913Z,54.35
2018-03-21T22:35:29.386Z,54.89
2018-03-21T22:37:56.861Z,54.51
2018-03-21T22:40:24.356Z,54.21
2018-03-21T22:42:51.822Z,54.77
2018-03-21T22:45:19.310Z,54.96
2018-03-21T22:47:46.864Z,54.88
2018-03-21T22:50:14.363Z,54.90
2018-03-21T22:52:41.895Z,54.88
2018-03-21T22:55:09.393Z,55.46
2018-03-21T22:57:36.870Z,54.38
2018-03-21T23:00:05.922Z,54.14
2018-03-21T23:02:33.528Z,54.19
2018-03-21T23:05:01.249Z,53.80
2018-03-21T23:07:28.747Z,54.07
2018-03-21T23:09:56.504Z,54.85
2018-03-21T23:12:24.093Z,55.29
2018-03-21T23:14:51.591Z,55.57
2018-03-21T23:17:19.087Z,55.01
2018-03-21T23:19:46.544Z,54.65
2018-03-21T23:22:14.028Z,55.68
2018-03-21T23:24:41.496Z,55.38
2018-03-21T23:27:09.073Z,55.42
2018-03-21T23:29:36.540Z,55.50
2018-03-21T23:32:04.032Z,55.45
2018-03-21T23:34:31.535Z,55.01
2018-03-21T23:36:59.021Z,53.80
2018-03-21T23:39:26.516Z,53.25
2018-03-21T23:41:54.044Z,54.54
2018-03-21T23:44:21.578Z,54.58
2018-03-21T23:46:49.058Z,54.18
2018-03-21T23:49:16.576Z,53.27
2018-03-21T23:51:44.040Z,54.00
2018-03-21T23:54:11.517Z,54.05
2018-03-21T23:56:39.020Z,53.47
2018-03-21T23:59:06.505Z,54.17
